Time;durP1;ratioP1;P1;durP2;ratioP2;P2;SDS_P1;SDS_P2;PMS_P1;PMS_P2;Temp;Humidity;BMP_temperature;BMP_pressure;BME280_temperature;BME280_humidity;BME280_pressure;Samples;Min_cycle;Max_cycle;Signal;HPM_P1;HPM_P2
2021/10/18 00:01:43;;;;;;;0.30;0.17;;;7.10;99.90;;;;;;5059803;28;20184;-81
2021/10/18 00:04:09;;;;;;;0.20;0.20;;;7.10;99.90;;;;;;5056413;28;20673;-80
2021/10/18 00:06:35;;;;;;;0.53;0.40;;;7.10;99.90;;;;;;5060250;28;20296;-80
2021/10/18 00:09:01;;;;;;;0.27;0.27;;;7.10;99.90;;;;;;5056824;28;20185;-80
2021/10/18 00:11:27;;;;;;;0.10;0.10;;;7.10;99.90;;;;;;5057671;28;20255;-80
2021/10/18 00:13:53;;;;;;;0.00;0.00;;;7.20;99.90;;;;;;5070122;28;20255;-80
2021/10/18 00:16:19;;;;;;;0.30;0.30;;;7.20;99.90;;;;;;5064408;28;20595;-80
2021/10/18 00:18:45;;;;;;;0.20;0.20;;;7.20;99.90;;;;;;5056734;28;20192;-80
2021/10/18 00:21:11;;;;;;;0.10;0.10;;;7.10;99.90;;;;;;5052781;28;20655;-80
2021/10/18 00:23:37;;;;;;;0.20;0.20;;;7.00;99.90;;;;;;5054781;28;20190;-80
2021/10/18 00:26:03;;;;;;;0.40;0.40;;;7.00;99.90;;;;;;5051730;28;20210;-80
2021/10/18 00:28:30;;;;;;;0.13;0.13;;;6.90;99.90;;;;;;5060005;28;20252;-80
2021/10/18 00:30:55;;;;;;;0.00;0.00;;;6.80;99.90;;;;;;5065812;28;20178;-80
2021/10/18 00:33:21;;;;;;;1.13;0.60;;;6.70;99.90;;;;;;5067532;28;20259;-80
2021/10/18 00:35:47;;;;;;;0.10;0.10;;;6.60;99.90;;;;;;5062212;28;20224;-80
2021/10/18 00:38:12;;;;;;;0.10;0.10;;;6.60;99.90;;;;;;5060879;28;20185;-80
2021/10/18 00:40:38;;;;;;;0.30;0.30;;;6.70;99.90;;;;;;5064518;28;20195;-80
2021/10/18 00:43:04;;;;;;;0.17;0.17;;;6.70;99.90;;;;;;5059173;28;20268;-80
2021/10/18 00:45:30;;;;;;;0.30;0.30;;;6.80;99.90;;;;;;5059084;28;20244;-80
2021/10/18 00:47:57;;;;;;;0.50;0.50;;;6.70;99.90;;;;;;5067017;28;20576;-80
2021/10/18 00:50:23;;;;;;;0.30;0.30;;;6.70;99.90;;;;;;5066057;28;20182;-80
2021/10/18 00:52:49;;;;;;;0.30;0.30;;;6.70;99.90;;;;;;5056577;28;20691;-80
2021/10/18 00:55:15;;;;;;;0.10;0.10;;;6.60;99.90;;;;;;5053834;28;20178;-80
2021/10/18 00:57:42;;;;;;;0.40;0.40;;;6.50;99.90;;;;;;5067421;28;20205;-80
2021/10/18 01:00:08;;;;;;;0.40;0.20;;;6.50;99.90;;;;;;5060954;28;20196;-80
2021/10/18 01:02:34;;;;;;;0.83;0.57;;;6.60;99.90;;;;;;5063509;28;20196;-80
2021/10/18 01:05:00;;;;;;;2.00;0.50;;;6.70;99.90;;;;;;5067034;28;20186;-80
2021/10/18 01:07:26;;;;;;;0.30;0.30;;;6.70;99.90;;;;;;5067985;28;20602;-80
2021/10/18 01:09:51;;;;;;;0.20;0.20;;;6.70;99.90;;;;;;5064642;28;20189;-80
2021/10/18 01:12:17;;;;;;;0.10;0.10;;;6.70;99.90;;;;;;5054375;28;20585;-80
2021/10/18 01:14:43;;;;;;;0.10;0.10;;;6.80;99.90;;;;;;5054945;28;20190;-80
2021/10/18 01:17:08;;;;;;;0.20;0.20;;;6.90;99.90;;;;;;5065421;28;20193;-80
2021/10/18 01:19:34;;;;;;;0.20;0.20;;;6.80;99.90;;;;;;5062331;28;20555;-80
2021/10/18 01:22:02;;;;;;;0.00;0.00;;;6.80;99.90;;;;;;5058432;28;20239;-80
2021/10/18 01:24:28;;;;;;;0.10;0.10;;;6.70;99.90;;;;;;5067075;28;20267;-80
2021/10/18 01:26:54;;;;;;;0.37;0.37;;;6.70;99.90;;;;;;5057843;28;20201;-80
2021/10/18 01:29:20;;;;;;;0.63;0.63;;;6.70;99.90;;;;;;5062567;28;20204;-80
2021/10/18 01:31:45;;;;;;;0.43;0.27;;;6.70;99.90;;;;;;5062752;28;20214;-80
2021/10/18 01:34:11;;;;;;;0.30;0.30;;;6.70;99.90;;;;;;5056191;28;20692;-80
2021/10/18 01:36:37;;;;;;;0.83;0.23;;;6.80;99.90;;;;;;5064197;28;20193;-80
2021/10/18 01:39:02;;;;;;;0.10;0.10;;;6.90;99.90;;;;;;5061564;28;20310;-80
2021/10/18 01:41:28;;;;;;;0.63;0.30;;;6.90;99.90;;;;;;5067899;28;20275;-80
2021/10/18 01:43:54;;;;;;;0.30;0.30;;;7.00;99.90;;;;;;5065025;28;20673;-79
2021/10/18 01:46:19;;;;;;;0.20;0.20;;;7.00;99.90;;;;;;5050610;28;20337;-80
2021/10/18 01:48:45;;;;;;;0.70;0.50;;;7.00;99.90;;;;;;5050349;28;20194;-80
2021/10/18 01:51:11;;;;;;;0.30;0.30;;;7.00;99.90;;;;;;5053491;28;20186;-80
2021/10/18 01:53:37;;;;;;;0.40;0.40;;;6.90;99.90;;;;;;5050285;28;20178;-80
2021/10/18 01:56:04;;;;;;;0.10;0.10;;;7.00;99.90;;;;;;5052095;28;20594;-80
2021/10/18 01:58:31;;;;;;;0.20;0.13;;;7.10;99.90;;;;;;5050152;28;20278;-79
2021/10/18 02:01:02;;;;;;;0.23;0.23;;;7.10;99.90;;;;;;5052362;28;20635;-80
2021/10/18 02:03:27;;;;;;;0.27;0.17;;;7.10;99.90;;;;;;5061116;28;20177;-80
2021/10/18 02:05:53;;;;;;;0.23;0.23;;;7.10;99.90;;;;;;5063017;28;20702;-80
2021/10/18 02:08:18;;;;;;;0.60;0.60;;;7.10;99.90;;;;;;5055936;28;20654;-80
2021/10/18 02:10:44;;;;;;;0.23;0.23;;;7.10;99.90;;;;;;5067378;28;20226;-80
2021/10/18 02:13:10;;;;;;;0.43;0.23;;;7.20;99.90;;;;;;5062697;28;20704;-80
2021/10/18 02:15:36;;;;;;;0.37;0.37;;;7.10;99.90;;;;;;5064765;28;20181;-80
2021/10/18 02:18:02;;;;;;;0.10;0.10;;;7.20;99.90;;;;;;5058379;28;20563;-80
2021/10/18 02:20:28;;;;;;;0.13;0.13;;;6.80;99.90;;;;;;5066086;28;20730;-80
2021/10/18 02:22:54;;;;;;;0.50;0.23;;;6.50;99.90;;;;;;5063864;28;20280;-80
2021/10/18 02:25:19;;;;;;;0.17;0.17;;;6.30;99.90;;;;;;5065523;28;20658;-80
2021/10/18 02:27:45;;;;;;;0.10;0.10;;;6.30;99.90;;;;;;5041097;28;20206;-81
2021/10/18 02:30:12;;;;;;;0.30;0.30;;;6.10;99.90;;;;;;5065379;28;20192;-80
2021/10/18 02:32:38;;;;;;;0.13;0.13;;;5.90;99.90;;;;;;5063053;28;20202;-80
2021/10/18 02:35:05;;;;;;;0.20;0.20;;;6.00;99.90;;;;;;5059190;28;20178;-80
2021/10/18 02:37:31;;;;;;;0.20;0.20;;;6.10;99.90;;;;;;5060439;28;20197;-80
2021/10/18 02:39:56;;;;;;;0.10;0.10;;;6.30;99.90;;;;;;5063480;28;20177;-80
2021/10/18 02:42:22;;;;;;;0.23;0.23;;;6.40;99.90;;;;;;5045532;28;20212;-80
2021/10/18 02:44:48;;;;;;;0.10;0.10;;;6.50;99.90;;;;;;5047959;28;20236;-80
2021/10/18 02:47:13;;;;;;;0.20;0.20;;;6.50;99.90;;;;;;5047166;28;20627;-80
2021/10/18 02:49:39;;;;;;;0.37;0.37;;;6.50;99.90;;;;;;5049052;28;20241;-80
2021/10/18 02:52:05;;;;;;;0.30;0.30;;;6.60;99.90;;;;;;5056778;28;20209;-80
2021/10/18 02:54:30;;;;;;;0.40;0.40;;;6.40;99.90;;;;;;5060152;28;20178;-80
2021/10/18 02:56:56;;;;;;;0.57;0.57;;;6.40;99.90;;;;;;5059172;28;20197;-80
2021/10/18 02:59:22;;;;;;;0.10;0.10;;;6.50;99.90;;;;;;5052762;28;20182;-80
2021/10/18 03:01:47;;;;;;;0.37;0.37;;;6.50;99.90;;;;;;5044042;28;20191;-80
2021/10/18 03:04:13;;;;;;;0.10;0.10;;;6.50;99.90;;;;;;5050225;28;20185;-80
2021/10/18 03:06:38;;;;;;;0.10;0.10;;;6.40;99.90;;;;;;5063584;28;20678;-80
2021/10/18 03:09:04;;;;;;;0.03;0.03;;;6.40;99.90;;;;;;5052854;28;20180;-80
2021/10/18 03:11:30;;;;;;;1.13;1.13;;;6.30;99.90;;;;;;5053183;28;20206;-80
2021/10/18 03:13:55;;;;;;;0.20;0.20;;;6.30;99.90;;;;;;5054807;28;20824;-80
2021/10/18 03:16:21;;;;;;;0.10;0.10;;;6.30;99.90;;;;;;5044034;28;20229;-80
2021/10/18 03:18:47;;;;;;;1.03;1.03;;;6.30;99.90;;;;;;5050198;28;20247;-80
2021/10/18 03:21:13;;;;;;;0.23;0.23;;;6.20;99.90;;;;;;5057033;28;20194;-80
2021/10/18 03:23:38;;;;;;;0.13;0.13;;;6.20;99.90;;;;;;5065491;28;20188;-80
2021/10/18 03:26:04;;;;;;;0.40;0.30;;;6.20;99.90;;;;;;5047004;28;20201;-80
2021/10/18 03:28:30;;;;;;;1.40;0.97;;;6.00;99.90;;;;;;5057053;28;20194;-80
2021/10/18 03:30:55;;;;;;;1.23;1.13;;;5.90;99.90;;;;;;5053776;28;20181;-80
2021/10/18 03:33:21;;;;;;;0.20;0.20;;;5.70;99.90;;;;;;5056168;28;20338;-80
2021/10/18 03:35:47;;;;;;;0.27;0.27;;;5.70;99.90;;;;;;5043928;28;20179;-80
2021/10/18 03:38:12;;;;;;;0.90;0.90;;;5.80;99.90;;;;;;5051933;28;20684;-80
2021/10/18 03:40:38;;;;;;;0.10;0.10;;;6.00;99.90;;;;;;5046196;28;20245;-80
2021/10/18 03:43:03;;;;;;;0.37;0.37;;;6.30;99.90;;;;;;5052631;28;20548;-80
2021/10/18 03:45:29;;;;;;;0.93;0.50;;;6.60;99.90;;;;;;5042492;28;20244;-80
2021/10/18 03:47:55;;;;;;;0.30;0.10;;;6.80;99.90;;;;;;5061302;28;20667;-80
2021/10/18 03:50:21;;;;;;;0.87;0.50;;;7.00;99.90;;;;;;5045844;28;20229;-80
2021/10/18 03:52:46;;;;;;;0.30;0.30;;;7.20;99.90;;;;;;5050372;28;20279;-80
2021/10/18 03:55:12;;;;;;;1.37;0.37;;;7.40;99.90;;;;;;5046726;28;20558;-80
2021/10/18 03:57:38;;;;;;;0.40;0.40;;;7.50;99.90;;;;;;5049375;28;20224;-79
2021/10/18 04:00:06;;;;;;;9.13;0.80;;;7.60;99.90;;;;;;5055328;28;20269;-80
2021/10/18 04:02:31;;;;;;;0.30;0.30;;;7.60;99.90;;;;;;5050282;28;20282;-80
2021/10/18 04:04:57;;;;;;;0.30;0.30;;;7.60;99.90;;;;;;5042694;28;20675;-80
2021/10/18 04:07:22;;;;;;;0.47;0.47;;;7.30;99.90;;;;;;5051545;28;20305;-80
2021/10/18 04:09:48;;;;;;;0.50;0.50;;;7.10;99.90;;;;;;5051608;28;20225;-80
2021/10/18 04:12:14;;;;;;;0.73;0.73;;;7.10;99.90;;;;;;5060326;28;20651;-80
2021/10/18 04:14:40;;;;;;;0.30;0.30;;;7.30;99.90;;;;;;5048492;28;20180;-80
2021/10/18 04:17:05;;;;;;;0.53;0.27;;;7.60;99.90;;;;;;5047250;28;20212;-80
2021/10/18 04:19:31;;;;;;;2.47;0.37;;;7.80;99.90;;;;;;5048264;28;20265;-80
2021/10/18 04:21:57;;;;;;;0.70;0.57;;;7.90;99.90;;;;;;5044032;28;20227;-80
2021/10/18 04:24:22;;;;;;;1.30;0.50;;;8.00;99.90;;;;;;5042805;28;20552;-80
2021/10/18 04:26:48;;;;;;;0.67;0.67;;;8.20;99.90;;;;;;5046423;28;20198;-81
2021/10/18 04:29:14;;;;;;;2.33;0.63;;;8.10;99.90;;;;;;5046331;28;20203;-80
2021/10/18 04:31:39;;;;;;;0.87;0.87;;;8.20;99.90;;;;;;5056292;28;20238;-80
2021/10/18 04:34:05;;;;;;;0.60;0.60;;;8.20;99.90;;;;;;5052857;28;20258;-80
2021/10/18 04:36:30;;;;;;;1.43;1.33;;;8.00;99.90;;;;;;5054310;28;20204;-80
2021/10/18 04:38:56;;;;;;;0.40;0.40;;;8.20;99.90;;;;;;5060444;28;20270;-80
2021/10/18 04:41:22;;;;;;;1.60;0.63;;;8.30;99.90;;;;;;5051861;28;20207;-80
2021/10/18 04:43:48;;;;;;;1.40;0.23;;;8.40;99.90;;;;;;5057264;28;20183;-80
2021/10/18 04:46:14;;;;;;;1.33;0.53;;;8.40;99.90;;;;;;5053519;28;20227;-81
2021/10/18 04:48:39;;;;;;;0.30;0.30;;;8.40;99.90;;;;;;5054336;28;20184;-81
2021/10/18 04:51:05;;;;;;;0.10;0.10;;;8.50;99.90;;;;;;5058131;28;20204;-81
2021/10/18 04:53:31;;;;;;;0.20;0.20;;;8.40;99.90;;;;;;5062127;28;20194;-81
2021/10/18 04:55:56;;;;;;;6.73;1.03;;;8.30;99.90;;;;;;5048503;28;20182;-81
2021/10/18 04:58:22;;;;;;;0.93;0.43;;;8.20;99.90;;;;;;5045891;28;20188;-80
2021/10/18 05:00:53;;;;;;;0.33;0.30;;;8.00;99.90;;;;;;5052972;28;20193;-80
2021/10/18 05:03:19;;;;;;;0.90;0.77;;;7.90;99.90;;;;;;5061563;28;20555;-80
2021/10/18 05:05:44;;;;;;;1.13;0.80;;;7.70;99.90;;;;;;5069174;28;20181;-80
2021/10/18 05:08:12;;;;;;;2.07;1.03;;;7.60;99.90;;;;;;5061167;28;20198;-80
2021/10/18 05:10:40;;;;;;;1.00;0.73;;;7.70;99.90;;;;;;5053405;28;20284;-80
2021/10/18 05:13:07;;;;;;;0.57;0.57;;;7.70;99.90;;;;;;5044534;28;20263;-80
2021/10/18 05:15:33;;;;;;;0.53;0.53;;;7.60;99.90;;;;;;5050979;28;20192;-80
2021/10/18 05:18:00;;;;;;;1.13;0.93;;;7.70;99.90;;;;;;5067788;28;20200;-81
2021/10/18 05:20:27;;;;;;;0.17;0.17;;;7.80;99.90;;;;;;5065900;28;20692;-83
2021/10/18 05:22:52;;;;;;;2.27;0.20;;;7.90;99.90;;;;;;5061840;28;20189;-83
2021/10/18 05:25:18;;;;;;;0.10;0.10;;;8.10;99.90;;;;;;5058198;28;20193;-81
2021/10/18 05:27:44;;;;;;;1.47;1.33;;;8.20;99.90;;;;;;5052432;28;20202;-81
2021/10/18 05:30:11;;;;;;;0.93;0.43;;;8.40;99.90;;;;;;5053903;28;20197;-80
2021/10/18 05:32:36;;;;;;;0.50;0.50;;;8.60;99.90;;;;;;5057219;28;20213;-81
2021/10/18 05:35:03;;;;;;;0.33;0.33;;;8.70;99.90;;;;;;5056785;28;20208;-80
2021/10/18 05:37:28;;;;;;;0.40;0.40;;;8.90;99.90;;;;;;5062755;28;20204;-81
2021/10/18 05:39:54;;;;;;;0.77;0.63;;;8.90;99.90;;;;;;5046787;28;20196;-81
2021/10/18 05:42:20;;;;;;;0.20;0.20;;;9.00;99.90;;;;;;5063502;28;20184;-80
2021/10/18 05:44:46;;;;;;;0.20;0.20;;;9.00;99.90;;;;;;5054156;28;20967;-81
2021/10/18 05:47:11;;;;;;;0.40;0.40;;;9.00;99.90;;;;;;5060642;28;20204;-81
2021/10/18 05:49:37;;;;;;;0.33;0.30;;;9.10;99.90;;;;;;5054201;28;20556;-81
2021/10/18 05:52:04;;;;;;;0.33;0.20;;;9.10;99.90;;;;;;5060173;28;20308;-81
2021/10/18 05:54:30;;;;;;;2.37;0.70;;;9.20;99.90;;;;;;5058791;28;20186;-80
2021/10/18 05:56:55;;;;;;;0.70;0.50;;;9.20;99.90;;;;;;5051959;28;20215;-81
2021/10/18 05:59:21;;;;;;;0.83;0.50;;;9.20;99.90;;;;;;5059009;28;20540;-80
2021/10/18 06:01:46;;;;;;;0.40;0.40;;;9.20;99.90;;;;;;5063453;28;20244;-81
2021/10/18 06:04:12;;;;;;;0.70;0.70;;;9.30;99.90;;;;;;5065428;28;20279;-81
2021/10/18 06:06:38;;;;;;;1.30;0.87;;;9.30;99.90;;;;;;5049198;28;20693;-81
2021/10/18 06:09:04;;;;;;;0.47;0.47;;;9.30;99.90;;;;;;5053232;28;20190;-81
2021/10/18 06:11:31;;;;;;;2.33;1.80;;;9.30;99.90;;;;;;5066119;28;20218;-81
2021/10/18 06:13:56;;;;;;;1.30;1.07;;;9.40;99.90;;;;;;5039664;28;20205;-81
2021/10/18 06:16:22;;;;;;;2.00;0.43;;;9.40;99.90;;;;;;5058189;28;20213;-81
2021/10/18 06:18:47;;;;;;;0.30;0.20;;;9.40;99.90;;;;;;5041533;28;20267;-81
2021/10/18 06:21:13;;;;;;;0.73;0.73;;;9.40;99.90;;;;;;5045391;28;20642;-81
2021/10/18 06:23:39;;;;;;;0.43;0.43;;;9.30;99.90;;;;;;5064881;28;20753;-81
2021/10/18 06:26:04;;;;;;;0.83;0.83;;;9.20;99.90;;;;;;5049087;28;20576;-82
2021/10/18 06:28:30;;;;;;;2.23;0.57;;;9.20;99.90;;;;;;5056563;28;20199;-81
2021/10/18 06:30:56;;;;;;;1.50;0.63;;;9.10;99.90;;;;;;5044338;28;20254;-81
2021/10/18 06:33:24;;;;;;;0.20;0.20;;;9.10;99.90;;;;;;5051535;28;20291;-82
2021/10/18 06:35:50;;;;;;;0.50;0.50;;;9.10;99.90;;;;;;5054108;28;20184;-81
2021/10/18 06:38:17;;;;;;;0.20;0.20;;;9.10;99.90;;;;;;5063649;28;20227;-81
2021/10/18 06:40:44;;;;;;;1.17;0.40;;;9.10;99.90;;;;;;5049290;28;20553;-81
2021/10/18 06:43:10;;;;;;;0.53;0.53;;;9.10;99.90;;;;;;5068989;28;20183;-81
2021/10/18 06:45:35;;;;;;;0.50;0.50;;;9.20;99.90;;;;;;5062515;28;20192;-81
2021/10/18 06:48:01;;;;;;;0.87;0.60;;;9.20;99.90;;;;;;5055647;28;20203;-82
2021/10/18 06:50:29;;;;;;;2.77;1.90;;;9.30;99.90;;;;;;5051601;28;20716;-82
2021/10/18 06:52:55;;;;;;;0.50;0.37;;;9.30;99.90;;;;;;5053150;28;20196;-81
2021/10/18 06:55:22;;;;;;;1.60;0.87;;;9.20;99.90;;;;;;5051890;28;20190;-81
2021/10/18 06:57:48;;;;;;;1.47;1.37;;;9.20;99.90;;;;;;5047361;28;20212;-82
2021/10/18 07:00:14;;;;;;;0.57;0.30;;;9.20;99.90;;;;;;5049186;28;20188;-81
2021/10/18 07:02:39;;;;;;;1.93;1.07;;;9.20;99.90;;;;;;5055628;28;20189;-82
2021/10/18 07:05:05;;;;;;;0.47;0.47;;;9.20;99.90;;;;;;5049901;28;20184;-81
2021/10/18 07:07:31;;;;;;;0.63;0.63;;;9.30;99.90;;;;;;5046700;28;20265;-81
2021/10/18 07:10:00;;;;;;;5.27;0.43;;;9.20;99.90;;;;;;5032653;28;20220;-81
2021/10/18 07:12:30;;;;;;;0.50;0.50;;;9.20;99.90;;;;;;5038950;28;20261;-80
2021/10/18 07:14:57;;;;;;;0.57;0.57;;;9.30;99.90;;;;;;5041602;28;20201;-80
2021/10/18 07:17:23;;;;;;;2.70;1.13;;;9.20;99.90;;;;;;5055110;28;20217;-81
2021/10/18 07:19:50;;;;;;;2.23;1.83;;;9.20;99.90;;;;;;5063683;28;20191;-81
2021/10/18 07:22:25;;;;;;;0.50;0.50;;;9.20;99.90;;;;;;5060084;28;20182;-81
2021/10/18 07:24:51;;;;;;;1.23;1.13;;;9.10;99.90;;;;;;5058013;28;20179;-80
2021/10/18 07:27:17;;;;;;;0.63;0.43;;;9.10;99.90;;;;;;5052934;28;20209;-80
2021/10/18 07:29:42;;;;;;;7.87;1.07;;;9.10;99.90;;;;;;5063243;28;20713;-80
2021/10/18 07:32:08;;;;;;;2.00;0.50;;;9.20;99.90;;;;;;5051949;28;20212;-80
2021/10/18 07:34:34;;;;;;;0.67;0.67;;;9.30;99.90;;;;;;5068590;28;20718;-81
2021/10/18 07:37:01;;;;;;;0.23;0.23;;;9.30;99.90;;;;;;5056875;28;20201;-82
2021/10/18 07:39:27;;;;;;;2.47;0.63;;;9.30;99.90;;;;;;5050160;28;20310;-81
2021/10/18 07:41:55;;;;;;;0.30;0.30;;;9.40;99.90;;;;;;5061726;28;20193;-81
2021/10/18 07:44:21;;;;;;;0.60;0.60;;;9.50;99.90;;;;;;5047655;28;20544;-81
2021/10/18 07:46:47;;;;;;;0.60;0.60;;;9.60;99.90;;;;;;5047034;28;20209;-81
2021/10/18 07:49:14;;;;;;;1.23;0.43;;;9.50;99.90;;;;;;5043931;28;20280;-80
2021/10/18 07:51:40;;;;;;;3.57;2.20;;;9.60;99.90;;;;;;5044824;28;20259;-80
2021/10/18 07:54:05;;;;;;;0.20;0.20;;;9.70;99.90;;;;;;5056002;28;20184;-80
2021/10/18 07:56:32;;;;;;;0.77;0.77;;;9.60;99.90;;;;;;5049802;28;20242;-81
2021/10/18 07:58:58;;;;;;;2.97;1.37;;;9.30;99.90;;;;;;5062166;28;20620;-80
2021/10/18 08:01:24;;;;;;;1.73;1.10;;;9.20;99.90;;;;;;5051747;28;20664;-81
2021/10/18 08:03:50;;;;;;;1.20;0.70;;;9.30;99.90;;;;;;5056712;28;20191;-81
2021/10/18 08:06:15;;;;;;;1.50;1.40;;;9.50;99.90;;;;;;5055596;28;20202;-80
2021/10/18 08:08:47;;;;;;;0.80;0.70;;;9.70;99.90;;;;;;5059864;28;20185;-80
2021/10/18 08:11:12;;;;;;;0.63;0.63;;;9.90;99.90;;;;;;5050320;28;20273;-81
2021/10/18 08:13:38;;;;;;;4.17;1.53;;;9.90;99.90;;;;;;5054043;28;20269;-80
2021/10/18 08:16:05;;;;;;;5.07;1.67;;;10.00;99.90;;;;;;5051587;28;20276;-81
2021/10/18 08:18:31;;;;;;;1.20;1.17;;;10.10;99.90;;;;;;5064823;28;20281;-80
2021/10/18 08:20:57;;;;;;;0.93;0.93;;;10.10;99.90;;;;;;5064993;28;20211;-80
2021/10/18 08:23:23;;;;;;;2.53;0.80;;;10.10;99.90;;;;;;5051200;28;20197;-81
2021/10/18 08:25:48;;;;;;;2.13;1.10;;;10.10;99.90;;;;;;5041369;28;20208;-81
2021/10/18 08:28:14;;;;;;;1.63;0.70;;;10.20;99.90;;;;;;5064240;28;20212;-82
2021/10/18 08:30:39;;;;;;;0.57;0.53;;;10.20;99.90;;;;;;5053332;28;20191;-82
2021/10/18 08:33:05;;;;;;;1.07;1.03;;;10.30;99.90;;;;;;5052327;28;20204;-82
2021/10/18 08:35:32;;;;;;;0.87;0.87;;;10.20;99.90;;;;;;5055830;28;20188;-82
2021/10/18 08:45:50;;;;;;;7.03;2.10;;;10.50;99.90;;;;;;5061280;28;20193;-82
2021/10/18 08:48:16;;;;;;;2.00;0.87;;;10.60;99.90;;;;;;5054572;28;20201;-81
2021/10/18 08:50:42;;;;;;;2.90;2.53;;;10.70;99.90;;;;;;5052954;28;20187;-81
2021/10/18 08:53:08;;;;;;;5.83;1.93;;;10.70;99.90;;;;;;5055732;28;20272;-81
2021/10/18 08:55:37;;;;;;;1.93;1.20;;;10.80;99.90;;;;;;5047328;28;20185;-81
2021/10/18 08:58:04;;;;;;;1.40;0.63;;;10.80;99.90;;;;;;5055712;28;20283;-81
2021/10/18 09:00:53;;;;;;;2.73;1.73;;;11.00;99.90;;;;;;5055056;28;20181;-81
2021/10/18 09:03:32;;;;;;;2.13;1.20;;;11.10;99.90;;;;;;5053039;28;20706;-82
2021/10/18 09:06:18;;;;;;;1.50;1.40;;;10.80;99.90;;;;;;5066582;28;20181;-81
2021/10/18 09:08:52;;;;;;;1.73;1.00;;;11.00;99.90;;;;;;5052601;28;20224;-82
2021/10/18 09:11:22;;;;;;;1.00;1.00;;;11.00;99.90;;;;;;5057897;28;20190;-81
2021/10/18 09:13:50;;;;;;;1.27;0.90;;;11.10;99.90;;;;;;5048055;28;20182;-81
2021/10/18 09:16:32;;;;;;;0.67;0.67;;;11.10;99.90;;;;;;5054713;28;20212;-81
2021/10/18 09:19:06;;;;;;;0.83;0.83;;;11.20;99.90;;;;;;5063499;28;20179;-81
2021/10/18 09:22:01;;;;;;;2.07;0.80;;;11.20;99.90;;;;;;5049084;28;20195;-81
2021/10/18 09:24:30;;;;;;;1.10;0.97;;;11.30;99.90;;;;;;5056751;28;20724;-82
2021/10/18 09:26:58;;;;;;;1.20;1.10;;;11.40;99.90;;;;;;5063751;28;20207;-82
2021/10/18 09:29:44;;;;;;;3.13;1.33;;;11.50;99.90;;;;;;5060289;28;20257;-81
2021/10/18 09:32:16;;;;;;;2.83;2.63;;;11.40;99.90;;;;;;5052015;28;20770;-81
2021/10/18 09:34:41;;;;;;;1.60;1.40;;;11.50;99.90;;;;;;5049887;28;20540;-82
2021/10/18 09:37:09;;;;;;;1.37;1.37;;;11.60;99.90;;;;;;5052186;28;20197;-82
2021/10/18 09:39:41;;;;;;;0.50;0.50;;;11.70;99.90;;;;;;5055729;28;20177;-82
2021/10/18 09:42:11;;;;;;;4.37;1.93;;;11.60;99.90;;;;;;5056991;28;20181;-82
2021/10/18 10:54:12;;;;;;;1.10;1.03;;;11.80;99.90;;;;;;5058382;28;20217;-80
2021/10/18 10:56:50;;;;;;;2.60;2.03;;;11.80;99.90;;;;;;5059312;28;20556;-81
2021/10/18 10:59:20;;;;;;;5.63;2.23;;;11.90;99.90;;;;;;5060246;28;20197;-80
2021/10/18 11:01:58;;;;;;;1.30;0.67;;;12.00;99.90;;;;;;5050607;28;20262;-81
2021/10/18 11:04:30;;;;;;;3.03;1.33;;;12.20;99.90;;;;;;5048959;28;20185;-80
2021/10/18 11:07:04;;;;;;;10.77;1.47;;;12.20;99.90;;;;;;5050160;28;21685;-83
2021/10/18 11:09:43;;;;;;;3.93;1.80;;;12.30;99.90;;;;;;5047458;28;20189;-81
2021/10/18 11:12:17;;;;;;;2.53;1.27;;;12.20;99.90;;;;;;5041769;28;20555;-82
2021/10/18 11:14:58;;;;;;;2.90;1.77;;;12.10;99.90;;;;;;5048837;28;20184;-80
2021/10/18 11:17:25;;;;;;;1.33;0.77;;;12.30;99.90;;;;;;5075639;28;20533;-80
2021/10/18 11:20:06;;;;;;;1.57;1.20;;;12.30;99.90;;;;;;5070222;28;20181;-80
2021/10/18 11:22:40;;;;;;;4.07;1.40;;;12.40;99.90;;;;;;5060122;28;20181;-80
2021/10/18 11:25:12;;;;;;;1.57;0.70;;;12.40;99.90;;;;;;5050004;28;20167;-80
2021/10/18 11:27:40;;;;;;;1.60;1.27;;;12.40;99.90;;;;;;5066736;28;20198;-81
2021/10/18 11:30:11;;;;;;;1.97;1.20;;;12.40;99.90;;;;;;5058395;28;20697;-80
2021/10/18 11:32:37;;;;;;;2.93;1.93;;;12.40;99.90;;;;;;5066331;28;20265;-80
2021/10/18 11:35:16;;;;;;;1.00;0.83;;;12.20;99.90;;;;;;5062056;28;20675;-81
2021/10/18 11:37:59;;;;;;;3.97;1.83;;;12.10;99.90;;;;;;5058215;28;20193;-80
2021/10/18 11:40:36;;;;;;;3.10;1.10;;;12.30;99.90;;;;;;5055282;28;20195;-80
2021/10/18 11:43:07;;;;;;;2.37;1.43;;;12.40;99.90;;;;;;5055333;28;20188;-80
2021/10/18 11:45:36;;;;;;;1.33;1.00;;;12.50;99.90;;;;;;5057423;28;20267;-80
2021/10/18 11:48:04;;;;;;;1.50;1.40;;;12.60;99.90;;;;;;5063503;28;20250;-80
2021/10/18 11:50:29;;;;;;;0.53;0.53;;;12.60;99.90;;;;;;5065866;28;20178;-80
2021/10/18 11:53:00;;;;;;;2.10;1.50;;;12.60;99.90;;;;;;5070131;28;20208;-80
2021/10/18 11:55:30;;;;;;;0.67;0.63;;;12.60;99.90;;;;;;5056108;28;20686;-80
2021/10/18 11:57:59;;;;;;;1.37;1.07;;;12.50;99.90;;;;;;5061987;28;20576;-80
2021/10/18 12:00:26;;;;;;;2.20;1.50;;;12.50;99.90;;;;;;5054562;28;20185;-80
2021/10/18 12:02:59;;;;;;;1.80;1.20;;;12.50;99.90;;;;;;5059721;28;20840;-81
2021/10/18 12:05:25;;;;;;;2.77;2.57;;;12.50;99.90;;;;;;5053193;28;20184;-80
2021/10/18 12:07:51;;;;;;;1.60;1.50;;;12.80;99.90;;;;;;5065276;28;20573;-80
2021/10/18 12:10:26;;;;;;;2.53;1.37;;;12.90;99.90;;;;;;5066688;28;20509;-80
2021/10/18 12:13:14;;;;;;;1.20;1.20;;;13.00;99.90;;;;;;5066017;28;20338;-81
2021/10/18 12:15:53;;;;;;;2.00;1.47;;;12.80;99.90;;;;;;5072398;28;20205;-81
2021/10/18 12:18:24;;;;;;;1.70;1.60;;;12.80;99.90;;;;;;5064435;28;20561;-80
2021/10/18 12:20:53;;;;;;;1.53;1.37;;;12.90;99.90;;;;;;5069670;28;20182;-80
2021/10/18 12:23:21;;;;;;;0.90;0.90;;;13.00;99.90;;;;;;5072166;28;20181;-80
2021/10/18 12:26:03;;;;;;;2.93;1.47;;;13.00;99.90;;;;;;5069728;28;20188;-81
2021/10/18 12:28:43;;;;;;;2.90;1.40;;;12.90;99.90;;;;;;5070356;28;20196;-80
2021/10/18 12:31:32;;;;;;;1.07;0.80;;;12.50;99.90;;;;;;5065099;28;20181;-80
2021/10/18 12:34:07;;;;;;;1.57;1.47;;;12.60;99.90;;;;;;5064269;28;20255;-80
2021/10/18 12:36:56;;;;;;;1.57;1.47;;;12.60;99.90;;;;;;5055495;28;20203;-81
2021/10/18 12:39:35;;;;;;;0.90;0.90;;;12.80;99.90;;;;;;5055943;28;20202;-80
2021/10/18 12:42:02;;;;;;;5.10;1.80;;;12.90;99.90;;;;;;5060817;28;20183;-80
2021/10/18 12:44:41;;;;;;;1.73;1.43;;;12.70;99.90;;;;;;5057383;28;20185;-81
2021/10/18 12:47:15;;;;;;;2.47;1.57;;;12.80;99.90;;;;;;5070688;28;20218;-81
2021/10/18 12:49:42;;;;;;;1.30;1.10;;;13.00;99.90;;;;;;5061937;28;20524;-80
2021/10/18 12:52:09;;;;;;;1.57;1.47;;;13.10;99.90;;;;;;5041459;28;20214;-80
2021/10/18 12:54:44;;;;;;;1.70;1.27;;;13.10;99.90;;;;;;5041457;28;20253;-81
2021/10/18 12:57:12;;;;;;;1.90;1.73;;;13.00;99.90;;;;;;5050425;28;20287;-81
2021/10/18 13:00:09;;;;;;;0.63;0.63;;;12.80;99.90;;;;;;5049055;28;20190;-81
2021/10/18 13:02:46;;;;;;;0.73;0.73;;;12.90;99.90;;;;;;5058420;28;20189;-81
2021/10/18 13:05:15;;;;;;;3.17;1.50;;;13.00;99.90;;;;;;5066250;28;20180;-81
2021/10/18 13:07:52;;;;;;;2.37;1.30;;;12.90;99.90;;;;;;5061555;28;20211;-81
2021/10/18 13:10:20;;;;;;;2.17;2.00;;;12.90;99.90;;;;;;5056980;28;20273;-81
2021/10/18 13:12:46;;;;;;;1.83;1.63;;;12.80;99.90;;;;;;5066088;28;20203;-81
2021/10/18 13:15:15;;;;;;;2.40;1.83;;;12.60;99.90;;;;;;5042635;28;20249;-81
2021/10/18 13:17:42;;;;;;;2.87;2.00;;;12.50;99.90;;;;;;5042838;28;20210;-82
2021/10/18 13:20:09;;;;;;;3.50;2.00;;;12.50;99.90;;;;;;5039160;28;20264;-81
2021/10/18 13:22:36;;;;;;;1.10;0.73;;;12.60;99.90;;;;;;5041329;28;20192;-81
2021/10/18 13:25:04;;;;;;;1.70;1.60;;;12.50;99.90;;;;;;5048472;28;20216;-80
2021/10/18 13:27:31;;;;;;;0.70;0.70;;;12.50;99.90;;;;;;5052046;28;20206;-81
2021/10/18 13:29:57;;;;;;;1.63;1.53;;;12.40;99.90;;;;;;5068936;28;20228;-81
2021/10/18 13:32:22;;;;;;;3.10;1.47;;;12.20;99.90;;;;;;5061725;28;20201;-81
2021/10/18 13:34:48;;;;;;;3.13;1.37;;;12.00;99.90;;;;;;5067274;28;20185;-81
2021/10/18 13:37:14;;;;;;;0.90;0.87;;;12.30;99.90;;;;;;5070104;28;20197;-80
2021/10/18 13:39:40;;;;;;;2.23;1.90;;;12.40;99.90;;;;;;5067739;28;20180;-81
2021/10/18 13:42:06;;;;;;;1.83;1.37;;;12.50;99.90;;;;;;5066908;28;20214;-81
2021/10/18 13:44:33;;;;;;;1.50;1.40;;;12.40;99.90;;;;;;5073675;28;20228;-81
2021/10/18 13:46:59;;;;;;;3.13;1.20;;;12.10;99.90;;;;;;5062819;28;20200;-81
2021/10/18 13:49:24;;;;;;;1.80;1.67;;;12.20;99.90;;;;;;5069087;28;20184;-81
2021/10/18 13:51:50;;;;;;;3.00;1.63;;;12.00;99.90;;;;;;5067222;28;20203;-81
2021/10/18 13:54:16;;;;;;;1.53;1.13;;;12.10;99.90;;;;;;5057206;28;20180;-81
2021/10/18 13:56:42;;;;;;;1.17;1.10;;;12.20;99.90;;;;;;5065566;28;20210;-81
2021/10/18 13:59:08;;;;;;;1.93;0.40;;;12.20;99.90;;;;;;5058255;28;20181;-80
2021/10/18 14:01:33;;;;;;;1.37;1.27;;;12.30;99.90;;;;;;5064851;28;20224;-81
2021/10/18 14:03:59;;;;;;;1.30;1.27;;;12.10;99.90;;;;;;5071033;28;20170;-81
2021/10/18 14:06:25;;;;;;;1.40;1.10;;;12.20;99.90;;;;;;5072154;28;20266;-80
2021/10/18 14:08:51;;;;;;;1.77;1.67;;;11.90;99.90;;;;;;5067527;28;20811;-80
2021/10/18 14:11:18;;;;;;;1.27;1.17;;;11.70;99.90;;;;;;5070579;28;20208;-81
2021/10/18 14:13:44;;;;;;;2.03;1.57;;;12.00;99.90;;;;;;5065058;28;20213;-81